KBGR

Bangor International Airport

Bangor, Maine, USA
METAR KBGR 141253Z 10003KT 10SM OVC007 22/20 A2997 RMK AO2 SLP144 T02220200
Observed Flight Rules
Aug-14 @ 12:53 UTC (51 minutes ago) Instrument Flight Rules
Wind Visibility Clouds
100° at 3 knots 10 miles
  • Overcast at 700' AGL
Temperatures Readings
Current 22°C / 72°F
Dewpoint 20°C / 68°F
Humidity 88%
Altimeter 29.97" Hg
Pressure 1014.4 hPa
Elevation 57
METAR KBGR 141253Z 10003KT 10SM OVC007 22/20 A2997 RMK AO2 SLP144 T02220200
Observed Flight Rules
Aug-14 @ 12:53 UTC
(51 minutes ago)
IFR
Wind Visibility
100° at 3 knots 10 miles
Clouds
  • Overcast at 700' AGL
Temperature Dewpoint
22°C / 72°F 20°C / 68°F
Humidity Altimeter Pressure
88% 29.97" Hg 1014.4 hPa